Limaville, Ohio
Current Conditions -  °F | °C
As of 10:51 PM on Saturday 24 Jan 2015 (Local Time) from KCAK Reporting Station
Haze Haze  
Wind Chill: 26°   Ceiling: 900
Heat Index: 33°   Visibility: 2mi
Dew Point: 28°   Wind: 8mph
Humidity: 82%   Direction: 250°WSW
Pressure: 29.68"   Gusts: NA
Location:  40.98°N, 81.15°W
Report Text: KCAK 250351Z 25007KT 2SM BR OVC009 01/M02 A2968 RMK AO2 SFC VIS 4 CIG 009V015 SLP064 T00061022
Loading
Personal Weather Stations






























Interactive Weather Map New forecast layout! Learn more

10-Day Weather Forecast

Advertisements
Track Severe Weather on mobile